sensor_id;sensor_type;location;lat;lon;timestamp;P1;durP1;ratioP1;P2;durP2;ratioP2
72601;SDS011;60644;55.858;37.390;2022-07-23T00:01:40;8.27;;;3.80;;
72601;SDS011;60644;55.858;37.390;2022-07-23T00:04:06;6.78;;;3.50;;
72601;SDS011;60644;55.858;37.390;2022-07-23T00:06:32;9.60;;;3.90;;
72601;SDS011;60644;55.858;37.390;2022-07-23T00:08:58;7.07;;;3.47;;
72601;SDS011;60644;55.858;37.390;2022-07-23T00:11:24;7.78;;;3.65;;
72601;SDS011;60644;55.858;37.390;2022-07-23T00:13:50;8.43;;;3.80;;
72601;SDS011;60644;55.858;37.390;2022-07-23T00:16:16;8.00;;;3.90;;
72601;SDS011;60644;55.858;37.390;2022-07-23T00:18:42;7.07;;;3.57;;
72601;SDS011;60644;55.858;37.390;2022-07-23T00:21:08;7.25;;;3.70;;
72601;SDS011;60644;55.858;37.390;2022-07-23T00:23:34;7.68;;;3.80;;
72601;SDS011;60644;55.858;37.390;2022-07-23T00:26:00;8.63;;;3.60;;
72601;SDS011;60644;55.858;37.390;2022-07-23T00:28:26;7.50;;;3.50;;
72601;SDS011;60644;55.858;37.390;2022-07-23T00:30:52;6.20;;;3.30;;
72601;SDS011;60644;55.858;37.390;2022-07-23T00:33:18;7.95;;;3.47;;
72601;SDS011;60644;55.858;37.390;2022-07-23T00:35:44;6.82;;;3.58;;
72601;SDS011;60644;55.858;37.390;2022-07-23T00:38:10;7.93;;;3.20;;
72601;SDS011;60644;55.858;37.390;2022-07-23T00:40:37;9.65;;;3.10;;
72601;SDS011;60644;55.858;37.390;2022-07-23T00:43:04;8.05;;;3.30;;
72601;SDS011;60644;55.858;37.390;2022-07-23T00:45:30;7.40;;;3.83;;
72601;SDS011;60644;55.858;37.390;2022-07-23T00:47:56;8.10;;;3.80;;
72601;SDS011;60644;55.858;37.390;2022-07-23T00:50:22;7.50;;;3.40;;
72601;SDS011;60644;55.858;37.390;2022-07-23T00:52:49;6.82;;;3.30;;
72601;SDS011;60644;55.858;37.390;2022-07-23T00:55:15;6.78;;;3.22;;
72601;SDS011;60644;55.858;37.390;2022-07-23T00:57:41;10.20;;;3.60;;
72601;SDS011;60644;55.858;37.390;2022-07-23T01:00:09;8.75;;;3.28;;
72601;SDS011;60644;55.858;37.390;2022-07-23T01:02:38;6.70;;;3.13;;
72601;SDS011;60644;55.858;37.390;2022-07-23T01:05:05;7.18;;;3.30;;
72601;SDS011;60644;55.858;37.390;2022-07-23T01:07:32;6.88;;;3.65;;
72601;SDS011;60644;55.858;37.390;2022-07-23T01:09:58;7.22;;;3.30;;
72601;SDS011;60644;55.858;37.390;2022-07-23T01:12:25;7.95;;;3.13;;
72601;SDS011;60644;55.858;37.390;2022-07-23T01:14:55;5.90;;;3.10;;
72601;SDS011;60644;55.858;37.390;2022-07-23T01:17:29;5.55;;;3.10;;
72601;SDS011;60644;55.858;37.390;2022-07-23T01:19:55;5.97;;;3.10;;
72601;SDS011;60644;55.858;37.390;2022-07-23T01:22:21;7.15;;;3.20;;
72601;SDS011;60644;55.858;37.390;2022-07-23T01:24:49;6.23;;;3.10;;
72601;SDS011;60644;55.858;37.390;2022-07-23T01:27:20;5.93;;;3.15;;
72601;SDS011;60644;55.858;37.390;2022-07-23T01:29:49;6.68;;;3.00;;
72601;SDS011;60644;55.858;37.390;2022-07-23T01:32:19;6.03;;;3.08;;
72601;SDS011;60644;55.858;37.390;2022-07-23T01:34:45;7.20;;;3.00;;
72601;SDS011;60644;55.858;37.390;2022-07-23T01:37:11;8.97;;;3.37;;
72601;SDS011;60644;55.858;37.390;2022-07-23T01:39:38;8.13;;;3.22;;
72601;SDS011;60644;55.858;37.390;2022-07-23T01:42:06;6.47;;;3.20;;
72601;SDS011;60644;55.858;37.390;2022-07-23T01:44:33;8.35;;;3.17;;
72601;SDS011;60644;55.858;37.390;2022-07-23T01:46:59;6.40;;;3.20;;
72601;SDS011;60644;55.858;37.390;2022-07-23T01:49:25;8.77;;;3.30;;
72601;SDS011;60644;55.858;37.390;2022-07-23T01:52:22;6.75;;;3.30;;
72601;SDS011;60644;55.858;37.390;2022-07-23T01:54:49;7.50;;;2.90;;
72601;SDS011;60644;55.858;37.390;2022-07-23T01:57:16;7.15;;;3.33;;
72601;SDS011;60644;55.858;37.390;2022-07-23T01:59:42;8.02;;;3.60;;
72601;SDS011;60644;55.858;37.390;2022-07-23T02:02:09;6.63;;;3.20;;
72601;SDS011;60644;55.858;37.390;2022-07-23T02:04:36;7.22;;;3.13;;
72601;SDS011;60644;55.858;37.390;2022-07-23T02:07:03;7.45;;;3.25;;
72601;SDS011;60644;55.858;37.390;2022-07-23T02:09:29;7.07;;;3.03;;
72601;SDS011;60644;55.858;37.390;2022-07-23T02:11:56;7.27;;;3.03;;
72601;SDS011;60644;55.858;37.390;2022-07-23T02:14:23;7.72;;;3.15;;
72601;SDS011;60644;55.858;37.390;2022-07-23T02:16:50;6.68;;;3.10;;
72601;SDS011;60644;55.858;37.390;2022-07-23T02:19:16;6.50;;;3.10;;
72601;SDS011;60644;55.858;37.390;2022-07-23T02:21:41;7.07;;;3.20;;
72601;SDS011;60644;55.858;37.390;2022-07-23T02:24:07;6.50;;;3.10;;
72601;SDS011;60644;55.858;37.390;2022-07-23T02:26:36;8.73;;;3.97;;
72601;SDS011;60644;55.858;37.390;2022-07-23T02:29:04;7.57;;;3.40;;
72601;SDS011;60644;55.858;37.390;2022-07-23T02:31:31;8.07;;;3.42;;
72601;SDS011;60644;55.858;37.390;2022-07-23T02:33:57;6.63;;;3.67;;
72601;SDS011;60644;55.858;37.390;2022-07-23T02:36:24;6.25;;;3.28;;
72601;SDS011;60644;55.858;37.390;2022-07-23T02:38:52;7.05;;;3.45;;
72601;SDS011;60644;55.858;37.390;2022-07-23T02:41:18;9.55;;;3.20;;
72601;SDS011;60644;55.858;37.390;2022-07-23T02:43:44;6.72;;;3.60;;
72601;SDS011;60644;55.858;37.390;2022-07-23T02:46:12;6.30;;;3.20;;
72601;SDS011;60644;55.858;37.390;2022-07-23T02:48:39;6.85;;;3.47;;
72601;SDS011;60644;55.858;37.390;2022-07-23T02:51:05;8.30;;;3.78;;
72601;SDS011;60644;55.858;37.390;2022-07-23T02:53:36;6.63;;;3.55;;
72601;SDS011;60644;55.858;37.390;2022-07-23T02:56:03;6.77;;;3.30;;
72601;SDS011;60644;55.858;37.390;2022-07-23T02:58:29;6.78;;;3.53;;
72601;SDS011;60644;55.858;37.390;2022-07-23T03:00:55;7.93;;;3.25;;
72601;SDS011;60644;55.858;37.390;2022-07-23T03:03:21;6.30;;;3.42;;
72601;SDS011;60644;55.858;37.390;2022-07-23T03:05:47;9.47;;;3.53;;
72601;SDS011;60644;55.858;37.390;2022-07-23T03:08:13;7.05;;;3.70;;
72601;SDS011;60644;55.858;37.390;2022-07-23T03:10:42;7.95;;;3.63;;
72601;SDS011;60644;55.858;37.390;2022-07-23T03:13:08;7.38;;;3.33;;
72601;SDS011;60644;55.858;37.390;2022-07-23T03:15:34;6.50;;;3.45;;
72601;SDS011;60644;55.858;37.390;2022-07-23T03:18:00;7.60;;;3.50;;
72601;SDS011;60644;55.858;37.390;2022-07-23T03:20:28;8.00;;;3.50;;
72601;SDS011;60644;55.858;37.390;2022-07-23T03:22:54;7.78;;;3.55;;
72601;SDS011;60644;55.858;37.390;2022-07-23T03:25:20;7.60;;;3.60;;
72601;SDS011;60644;55.858;37.390;2022-07-23T03:27:46;7.00;;;3.63;;
72601;SDS011;60644;55.858;37.390;2022-07-23T03:30:12;6.90;;;3.65;;
72601;SDS011;60644;55.858;37.390;2022-07-23T03:32:38;6.85;;;3.50;;
72601;SDS011;60644;55.858;37.390;2022-07-23T03:35:05;7.85;;;3.60;;
72601;SDS011;60644;55.858;37.390;2022-07-23T03:37:33;7.73;;;3.77;;
72601;SDS011;60644;55.858;37.390;2022-07-23T03:39:59;6.68;;;3.40;;
72601;SDS011;60644;55.858;37.390;2022-07-23T03:42:25;8.98;;;4.03;;
72601;SDS011;60644;55.858;37.390;2022-07-23T03:44:52;8.13;;;4.10;;
72601;SDS011;60644;55.858;37.390;2022-07-23T03:47:18;8.43;;;3.67;;
72601;SDS011;60644;55.858;37.390;2022-07-23T03:49:47;7.30;;;3.73;;
72601;SDS011;60644;55.858;37.390;2022-07-23T03:52:14;7.05;;;3.40;;
72601;SDS011;60644;55.858;37.390;2022-07-23T03:54:40;7.45;;;3.60;;
72601;SDS011;60644;55.858;37.390;2022-07-23T03:57:06;7.97;;;3.85;;
72601;SDS011;60644;55.858;37.390;2022-07-23T03:59:32;7.63;;;4.10;;
72601;SDS011;60644;55.858;37.390;2022-07-23T04:01:58;7.77;;;3.70;;
72601;SDS011;60644;55.858;37.390;2022-07-23T04:04:24;6.75;;;3.47;;
72601;SDS011;60644;55.858;37.390;2022-07-23T04:06:50;7.18;;;3.80;;
72601;SDS011;60644;55.858;37.390;2022-07-23T04:09:16;7.90;;;4.25;;
72601;SDS011;60644;55.858;37.390;2022-07-23T04:11:42;6.80;;;4.10;;
72601;SDS011;60644;55.858;37.390;2022-07-23T04:14:09;6.63;;;3.90;;
72601;SDS011;60644;55.858;37.390;2022-07-23T04:16:35;8.05;;;4.07;;
72601;SDS011;60644;55.858;37.390;2022-07-23T04:19:01;7.97;;;4.10;;
72601;SDS011;60644;55.858;37.390;2022-07-23T04:21:34;8.35;;;3.92;;
72601;SDS011;60644;55.858;37.390;2022-07-23T04:24:00;13.23;;;7.70;;
72601;SDS011;60644;55.858;37.390;2022-07-23T04:26:26;8.32;;;4.47;;
72601;SDS011;60644;55.858;37.390;2022-07-23T04:28:52;6.95;;;3.80;;
72601;SDS011;60644;55.858;37.390;2022-07-23T04:31:18;8.18;;;3.88;;
72601;SDS011;60644;55.858;37.390;2022-07-23T04:33:44;8.90;;;4.50;;
72601;SDS011;60644;55.858;37.390;2022-07-23T04:36:10;8.70;;;4.55;;
72601;SDS011;60644;55.858;37.390;2022-07-23T04:38:40;9.10;;;4.88;;
72601;SDS011;60644;55.858;37.390;2022-07-23T04:41:07;6.38;;;3.95;;
72601;SDS011;60644;55.858;37.390;2022-07-23T04:43:33;7.35;;;3.92;;
72601;SDS011;60644;55.858;37.390;2022-07-23T04:45:59;10.73;;;4.20;;
72601;SDS011;60644;55.858;37.390;2022-07-23T04:48:26;7.07;;;4.07;;
72601;SDS011;60644;55.858;37.390;2022-07-23T04:50:58;7.75;;;4.15;;
72601;SDS011;60644;55.858;37.390;2022-07-23T04:53:27;8.73;;;4.43;;
72601;SDS011;60644;55.858;37.390;2022-07-23T04:55:57;7.72;;;4.03;;
72601;SDS011;60644;55.858;37.390;2022-07-23T04:58:23;7.67;;;3.47;;
72601;SDS011;60644;55.858;37.390;2022-07-23T05:00:49;7.70;;;3.90;;
72601;SDS011;60644;55.858;37.390;2022-07-23T05:03:16;7.60;;;3.90;;
72601;SDS011;60644;55.858;37.390;2022-07-23T05:05:45;9.02;;;4.07;;
72601;SDS011;60644;55.858;37.390;2022-07-23T05:08:14;8.20;;;4.30;;
72601;SDS011;60644;55.858;37.390;2022-07-23T05:10:42;7.63;;;3.97;;
72601;SDS011;60644;55.858;37.390;2022-07-23T05:13:08;6.80;;;4.22;;
72601;SDS011;60644;55.858;37.390;2022-07-23T05:15:34;8.40;;;4.50;;
72601;SDS011;60644;55.858;37.390;2022-07-23T05:18:01;8.18;;;4.68;;
72601;SDS011;60644;55.858;37.390;2022-07-23T05:20:27;10.47;;;4.33;;
72601;SDS011;60644;55.858;37.390;2022-07-23T05:22:53;7.85;;;4.45;;
72601;SDS011;60644;55.858;37.390;2022-07-23T05:25:19;8.05;;;4.53;;
72601;SDS011;60644;55.858;37.390;2022-07-23T05:27:45;7.43;;;4.30;;
72601;SDS011;60644;55.858;37.390;2022-07-23T05:30:11;8.60;;;4.63;;
72601;SDS011;60644;55.858;37.390;2022-07-23T05:32:41;10.25;;;4.60;;
72601;SDS011;60644;55.858;37.390;2022-07-23T05:35:12;9.00;;;4.88;;
72601;SDS011;60644;55.858;37.390;2022-07-23T05:37:43;8.27;;;4.82;;
72601;SDS011;60644;55.858;37.390;2022-07-23T05:40:09;9.85;;;5.07;;
72601;SDS011;60644;55.858;37.390;2022-07-23T05:42:37;8.83;;;5.67;;
72601;SDS011;60644;55.858;37.390;2022-07-23T05:45:04;9.02;;;5.03;;
72601;SDS011;60644;55.858;37.390;2022-07-23T05:47:47;10.20;;;4.80;;
72601;SDS011;60644;55.858;37.390;2022-07-23T05:50:20;8.25;;;4.50;;
72601;SDS011;60644;55.858;37.390;2022-07-23T05:52:52;7.97;;;4.50;;
72601;SDS011;60644;55.858;37.390;2022-07-23T05:55:48;7.20;;;4.33;;
72601;SDS011;60644;55.858;37.390;2022-07-23T05:58:13;7.43;;;4.53;;
72601;SDS011;60644;55.858;37.390;2022-07-23T06:00:39;10.40;;;4.82;;
72601;SDS011;60644;55.858;37.390;2022-07-23T06:03:05;7.57;;;4.57;;
72601;SDS011;60644;55.858;37.390;2022-07-23T06:05:31;8.43;;;4.37;;
72601;SDS011;60644;55.858;37.390;2022-07-23T06:07:57;7.75;;;4.72;;
72601;SDS011;60644;55.858;37.390;2022-07-23T06:10:24;9.02;;;4.60;;
72601;SDS011;60644;55.858;37.390;2022-07-23T06:12:50;7.70;;;4.75;;
72601;SDS011;60644;55.858;37.390;2022-07-23T06:15:17;8.55;;;4.90;;
72601;SDS011;60644;55.858;37.390;2022-07-23T06:17:43;7.67;;;4.97;;
72601;SDS011;60644;55.858;37.390;2022-07-23T06:20:09;7.38;;;4.68;;
72601;SDS011;60644;55.858;37.390;2022-07-23T06:22:38;9.57;;;5.15;;
72601;SDS011;60644;55.858;37.390;2022-07-23T06:25:04;8.50;;;5.07;;
72601;SDS011;60644;55.858;37.390;2022-07-23T06:27:30;9.23;;;5.00;;
72601;SDS011;60644;55.858;37.390;2022-07-23T06:29:56;8.88;;;4.82;;
72601;SDS011;60644;55.858;37.390;2022-07-23T06:32:22;7.40;;;5.00;;
72601;SDS011;60644;55.858;37.390;2022-07-23T06:34:48;8.90;;;4.15;;
72601;SDS011;60644;55.858;37.390;2022-07-23T06:37:15;9.05;;;4.82;;
72601;SDS011;60644;55.858;37.390;2022-07-23T06:39:41;7.43;;;4.73;;
72601;SDS011;60644;55.858;37.390;2022-07-23T06:42:07;7.75;;;4.60;;
72601;SDS011;60644;55.858;37.390;2022-07-23T06:44:41;8.38;;;5.40;;
72601;SDS011;60644;55.858;37.390;2022-07-23T06:47:07;8.32;;;5.22;;
72601;SDS011;60644;55.858;37.390;2022-07-23T06:49:34;9.73;;;5.63;;
72601;SDS011;60644;55.858;37.390;2022-07-23T06:52:00;7.33;;;4.63;;
72601;SDS011;60644;55.858;37.390;2022-07-23T06:54:26;9.00;;;5.25;;
72601;SDS011;60644;55.858;37.390;2022-07-23T06:56:53;8.35;;;5.93;;
72601;SDS011;60644;55.858;37.390;2022-07-23T06:59:19;8.70;;;5.75;;
72601;SDS011;60644;55.858;37.390;2022-07-23T07:01:45;8.63;;;6.27;;
72601;SDS011;60644;55.858;37.390;2022-07-23T07:04:10;7.97;;;5.90;;
72601;SDS011;60644;55.858;37.390;2022-07-23T07:06:36;8.73;;;6.38;;
72601;SDS011;60644;55.858;37.390;2022-07-23T07:09:02;11.00;;;7.07;;
72601;SDS011;60644;55.858;37.390;2022-07-23T07:11:29;9.35;;;5.30;;
72601;SDS011;60644;55.858;37.390;2022-07-23T07:13:54;8.98;;;5.50;;
72601;SDS011;60644;55.858;37.390;2022-07-23T07:16:20;9.67;;;5.67;;
72601;SDS011;60644;55.858;37.390;2022-07-23T07:18:46;8.25;;;5.30;;
72601;SDS011;60644;55.858;37.390;2022-07-23T07:21:12;10.60;;;7.00;;
72601;SDS011;60644;55.858;37.390;2022-07-23T07:23:38;8.40;;;5.57;;
72601;SDS011;60644;55.858;37.390;2022-07-23T07:26:04;7.87;;;5.50;;
72601;SDS011;60644;55.858;37.390;2022-07-23T07:28:30;8.05;;;5.80;;
72601;SDS011;60644;55.858;37.390;2022-07-23T07:30:56;9.20;;;5.93;;
72601;SDS011;60644;55.858;37.390;2022-07-23T07:33:22;8.38;;;5.70;;
72601;SDS011;60644;55.858;37.390;2022-07-23T07:35:48;7.40;;;5.67;;
72601;SDS011;60644;55.858;37.390;2022-07-23T07:38:14;10.98;;;5.93;;
72601;SDS011;60644;55.858;37.390;2022-07-23T07:40:40;8.43;;;5.85;;
72601;SDS011;60644;55.858;37.390;2022-07-23T07:43:06;9.07;;;5.82;;
72601;SDS011;60644;55.858;37.390;2022-07-23T07:45:32;7.93;;;5.63;;
72601;SDS011;60644;55.858;37.390;2022-07-23T07:47:58;9.02;;;5.80;;
72601;SDS011;60644;55.858;37.390;2022-07-23T07:50:25;7.70;;;5.45;;
72601;SDS011;60644;55.858;37.390;2022-07-23T07:52:51;8.57;;;5.55;;
72601;SDS011;60644;55.858;37.390;2022-07-23T07:55:17;7.40;;;4.57;;
72601;SDS011;60644;55.858;37.390;2022-07-23T07:57:42;6.93;;;4.57;;
72601;SDS011;60644;55.858;37.390;2022-07-23T08:00:09;8.40;;;5.20;;
72601;SDS011;60644;55.858;37.390;2022-07-23T08:02:40;8.95;;;5.75;;
72601;SDS011;60644;55.858;37.390;2022-07-23T08:05:06;8.00;;;5.30;;
72601;SDS011;60644;55.858;37.390;2022-07-23T08:07:32;9.18;;;6.10;;
72601;SDS011;60644;55.858;37.390;2022-07-23T08:09:58;8.63;;;6.18;;
72601;SDS011;60644;55.858;37.390;2022-07-23T08:12:24;8.07;;;5.55;;
72601;SDS011;60644;55.858;37.390;2022-07-23T08:14:50;8.27;;;4.93;;
72601;SDS011;60644;55.858;37.390;2022-07-23T08:17:16;7.78;;;5.32;;
72601;SDS011;60644;55.858;37.390;2022-07-23T08:19:42;8.90;;;5.55;;
72601;SDS011;60644;55.858;37.390;2022-07-23T08:22:08;8.20;;;5.68;;
72601;SDS011;60644;55.858;37.390;2022-07-23T08:24:34;8.90;;;5.70;;
72601;SDS011;60644;55.858;37.390;2022-07-23T08:27:00;8.55;;;5.35;;
72601;SDS011;60644;55.858;37.390;2022-07-23T08:29:26;9.70;;;6.13;;
72601;SDS011;60644;55.858;37.390;2022-07-23T08:31:52;8.00;;;5.60;;
72601;SDS011;60644;55.858;37.390;2022-07-23T08:34:18;7.70;;;5.20;;
72601;SDS011;60644;55.858;37.390;2022-07-23T08:36:43;8.70;;;4.90;;
72601;SDS011;60644;55.858;37.390;2022-07-23T08:39:10;6.70;;;4.57;;
72601;SDS011;60644;55.858;37.390;2022-07-23T08:41:35;8.00;;;5.00;;
72601;SDS011;60644;55.858;37.390;2022-07-23T08:44:07;7.95;;;4.90;;
72601;SDS011;60644;55.858;37.390;2022-07-23T08:46:33;8.52;;;5.13;;
72601;SDS011;60644;55.858;37.390;2022-07-23T08:49:00;9.57;;;5.95;;
72601;SDS011;60644;55.858;37.390;2022-07-23T08:51:27;8.00;;;5.30;;
72601;SDS011;60644;55.858;37.390;2022-07-23T08:53:56;8.03;;;5.40;;
72601;SDS011;60644;55.858;37.390;2022-07-23T08:56:22;9.68;;;6.07;;
72601;SDS011;60644;55.858;37.390;2022-07-23T08:58:48;8.20;;;5.10;;
72601;SDS011;60644;55.858;37.390;2022-07-23T09:01:14;8.18;;;4.88;;
72601;SDS011;60644;55.858;37.390;2022-07-23T09:03:40;8.53;;;5.27;;
72601;SDS011;60644;55.858;37.390;2022-07-23T09:06:06;9.93;;;5.90;;
72601;SDS011;60644;55.858;37.390;2022-07-23T09:08:42;8.95;;;5.85;;
72601;SDS011;60644;55.858;37.390;2022-07-23T09:11:13;12.43;;;5.70;;
72601;SDS011;60644;55.858;37.390;2022-07-23T09:16:20;9.57;;;6.07;;
72601;SDS011;60644;55.858;37.390;2022-07-23T09:28:51;7.93;;;5.85;;
72601;SDS011;60644;55.858;37.390;2022-07-23T09:31:34;10.05;;;6.45;;
72601;SDS011;60644;55.858;37.390;2022-07-23T09:34:25;9.57;;;6.47;;
72601;SDS011;60644;55.858;37.390;2022-07-23T09:37:08;8.23;;;5.35;;
72601;SDS011;60644;55.858;37.390;2022-07-23T09:39:39;7.60;;;5.30;;
72601;SDS011;60644;55.858;37.390;2022-07-23T09:44:47;8.75;;;5.53;;
72601;SDS011;60644;55.858;37.390;2022-07-23T09:47:16;8.65;;;5.32;;
72601;SDS011;60644;55.858;37.390;2022-07-23T09:49:57;7.90;;;5.30;;
72601;SDS011;60644;55.858;37.390;2022-07-23T09:52:27;8.37;;;5.30;;
72601;SDS011;60644;55.858;37.390;2022-07-23T09:55:01;8.00;;;5.38;;
72601;SDS011;60644;55.858;37.390;2022-07-23T09:57:29;8.63;;;5.22;;
72601;SDS011;60644;55.858;37.390;2022-07-23T09:59:57;7.97;;;5.57;;
72601;SDS011;60644;55.858;37.390;2022-07-23T10:02:26;7.43;;;5.30;;
72601;SDS011;60644;55.858;37.390;2022-07-23T10:05:14;9.00;;;5.47;;
72601;SDS011;60644;55.858;37.390;2022-07-23T10:08:04;8.48;;;5.60;;
72601;SDS011;60644;55.858;37.390;2022-07-23T10:10:53;8.30;;;5.70;;
72601;SDS011;60644;55.858;37.390;2022-07-23T10:13:42;9.00;;;5.68;;
72601;SDS011;60644;55.858;37.390;2022-07-23T10:16:14;7.43;;;5.15;;
72601;SDS011;60644;55.858;37.390;2022-07-23T10:18:40;8.27;;;5.23;;
72601;SDS011;60644;55.858;37.390;2022-07-23T10:21:07;7.80;;;5.05;;
72601;SDS011;60644;55.858;37.390;2022-07-23T10:23:35;8.85;;;5.68;;
72601;SDS011;60644;55.858;37.390;2022-07-23T10:26:12;8.27;;;5.32;;
72601;SDS011;60644;55.858;37.390;2022-07-23T10:31:52;9.93;;;6.03;;
72601;SDS011;60644;55.858;37.390;2022-07-23T10:34:35;9.18;;;5.80;;
72601;SDS011;60644;55.858;37.390;2022-07-23T10:37:22;9.27;;;6.10;;
72601;SDS011;60644;55.858;37.390;2022-07-23T10:40:10;10.60;;;6.50;;
72601;SDS011;60644;55.858;37.390;2022-07-23T10:42:38;8.23;;;5.85;;
72601;SDS011;60644;55.858;37.390;2022-07-23T10:45:26;7.97;;;5.63;;
72601;SDS011;60644;55.858;37.390;2022-07-23T10:48:15;8.90;;;5.93;;
72601;SDS011;60644;55.858;37.390;2022-07-23T10:50:42;8.43;;;5.80;;
72601;SDS011;60644;55.858;37.390;2022-07-23T10:53:10;7.82;;;5.70;;
72601;SDS011;60644;55.858;37.390;2022-07-23T10:55:48;10.45;;;7.03;;
72601;SDS011;60644;55.858;37.390;2022-07-23T10:58:19;9.10;;;6.90;;
72601;SDS011;60644;55.858;37.390;2022-07-23T11:01:30;8.35;;;5.65;;
72601;SDS011;60644;55.858;37.390;2022-07-23T11:03:58;8.20;;;5.60;;
72601;SDS011;60644;55.858;37.390;2022-07-23T11:09:49;7.28;;;5.47;;
72601;SDS011;60644;55.858;37.390;2022-07-23T11:17:29;7.72;;;5.50;;
72601;SDS011;60644;55.858;37.390;2022-07-23T11:25:02;10.27;;;5.70;;
72601;SDS011;60644;55.858;37.390;2022-07-23T11:27:38;9.43;;;7.30;;
72601;SDS011;60644;55.858;37.390;2022-07-23T11:30:09;9.07;;;6.13;;
72601;SDS011;60644;55.858;37.390;2022-07-23T11:35:37;9.90;;;6.27;;
72601;SDS011;60644;55.858;37.390;2022-07-23T11:40:40;9.20;;;6.28;;
72601;SDS011;60644;55.858;37.390;2022-07-23T11:43:09;9.57;;;6.32;;
72601;SDS011;60644;55.858;37.390;2022-07-23T11:45:36;9.65;;;6.07;;
72601;SDS011;60644;55.858;37.390;2022-07-23T11:48:07;8.63;;;6.30;;
72601;SDS011;60644;55.858;37.390;2022-07-23T11:50:34;8.93;;;6.38;;
72601;SDS011;60644;55.858;37.390;2022-07-23T11:53:02;8.63;;;6.30;;
72601;SDS011;60644;55.858;37.390;2022-07-23T11:55:28;8.38;;;6.00;;
72601;SDS011;60644;55.858;37.390;2022-07-23T11:57:54;8.38;;;6.18;;
72601;SDS011;60644;55.858;37.390;2022-07-23T12:00:21;8.47;;;6.50;;
72601;SDS011;60644;55.858;37.390;2022-07-23T12:02:49;11.20;;;6.40;;
72601;SDS011;60644;55.858;37.390;2022-07-23T12:05:31;8.60;;;6.00;;
72601;SDS011;60644;55.858;37.390;2022-07-23T12:08:00;7.65;;;4.70;;
72601;SDS011;60644;55.858;37.390;2022-07-23T12:10:35;9.43;;;6.38;;
72601;SDS011;60644;55.858;37.390;2022-07-23T12:13:04;8.10;;;6.03;;
72601;SDS011;60644;55.858;37.390;2022-07-23T12:15:33;8.77;;;6.30;;
72601;SDS011;60644;55.858;37.390;2022-07-23T12:18:03;9.70;;;6.03;;
72601;SDS011;60644;55.858;37.390;2022-07-23T12:20:48;7.82;;;5.45;;
72601;SDS011;60644;55.858;37.390;2022-07-23T12:23:16;8.52;;;5.90;;
72601;SDS011;60644;55.858;37.390;2022-07-23T12:25:44;7.93;;;6.03;;
72601;SDS011;60644;55.858;37.390;2022-07-23T12:28:16;7.35;;;5.60;;
72601;SDS011;60644;55.858;37.390;2022-07-23T12:30:48;8.88;;;6.13;;
72601;SDS011;60644;55.858;37.390;2022-07-23T12:33:25;8.15;;;5.80;;
72601;SDS011;60644;55.858;37.390;2022-07-23T12:36:00;8.73;;;5.32;;
72601;SDS011;60644;55.858;37.390;2022-07-23T12:38:36;9.50;;;6.03;;
72601;SDS011;60644;55.858;37.390;2022-07-23T12:41:14;9.18;;;5.75;;
72601;SDS011;60644;55.858;37.390;2022-07-23T12:43:42;8.38;;;5.72;;
72601;SDS011;60644;55.858;37.390;2022-07-23T12:46:13;9.07;;;5.72;;
72601;SDS011;60644;55.858;37.390;2022-07-23T12:56:14;9.18;;;6.30;;
72601;SDS011;60644;55.858;37.390;2022-07-23T12:58:46;10.02;;;6.18;;
72601;SDS011;60644;55.858;37.390;2022-07-23T13:06:37;8.38;;;5.63;;
72601;SDS011;60644;55.858;37.390;2022-07-23T13:09:06;8.52;;;6.10;;
72601;SDS011;60644;55.858;37.390;2022-07-23T13:11:33;8.48;;;5.70;;
72601;SDS011;60644;55.858;37.390;2022-07-23T13:13:59;8.93;;;5.80;;
72601;SDS011;60644;55.858;37.390;2022-07-23T13:16:29;8.47;;;5.67;;
72601;SDS011;60644;55.858;37.390;2022-07-23T13:18:55;8.77;;;5.72;;
72601;SDS011;60644;55.858;37.390;2022-07-23T13:21:22;7.63;;;5.68;;
72601;SDS011;60644;55.858;37.390;2022-07-23T13:23:48;8.30;;;5.60;;
72601;SDS011;60644;55.858;37.390;2022-07-23T13:26:14;8.93;;;5.47;;
72601;SDS011;60644;55.858;37.390;2022-07-23T13:28:41;7.97;;;5.50;;
72601;SDS011;60644;55.858;37.390;2022-07-23T13:31:07;8.48;;;6.32;;
72601;SDS011;60644;55.858;37.390;2022-07-23T13:33:34;8.23;;;5.90;;
72601;SDS011;60644;55.858;37.390;2022-07-23T13:36:00;7.65;;;5.68;;
72601;SDS011;60644;55.858;37.390;2022-07-23T13:38:26;9.50;;;5.93;;
72601;SDS011;60644;55.858;37.390;2022-07-23T13:40:53;9.73;;;6.20;;
72601;SDS011;60644;55.858;37.390;2022-07-23T13:43:20;8.80;;;5.55;;
72601;SDS011;60644;55.858;37.390;2022-07-23T13:45:48;8.73;;;5.75;;
72601;SDS011;60644;55.858;37.390;2022-07-23T13:48:15;10.05;;;5.68;;
72601;SDS011;60644;55.858;37.390;2022-07-23T13:50:42;8.45;;;5.85;;
72601;SDS011;60644;55.858;37.390;2022-07-23T13:53:11;10.10;;;5.60;;
72601;SDS011;60644;55.858;37.390;2022-07-23T13:55:43;10.18;;;5.75;;
72601;SDS011;60644;55.858;37.390;2022-07-23T13:58:10;8.05;;;5.50;;
72601;SDS011;60644;55.858;37.390;2022-07-23T14:00:41;8.98;;;5.75;;
72601;SDS011;60644;55.858;37.390;2022-07-23T14:03:12;7.43;;;5.63;;
72601;SDS011;60644;55.858;37.390;2022-07-23T14:05:38;8.80;;;6.00;;
72601;SDS011;60644;55.858;37.390;2022-07-23T14:08:07;8.13;;;5.57;;
72601;SDS011;60644;55.858;37.390;2022-07-23T14:10:34;7.95;;;5.80;;
72601;SDS011;60644;55.858;37.390;2022-07-23T14:13:00;7.97;;;5.80;;
72601;SDS011;60644;55.858;37.390;2022-07-23T14:15:28;8.68;;;5.53;;
72601;SDS011;60644;55.858;37.390;2022-07-23T14:17:55;7.37;;;5.30;;
72601;SDS011;60644;55.858;37.390;2022-07-23T14:20:21;8.48;;;5.65;;
72601;SDS011;60644;55.858;37.390;2022-07-23T14:22:48;8.35;;;5.57;;
72601;SDS011;60644;55.858;37.390;2022-07-23T14:25:17;6.82;;;4.78;;
72601;SDS011;60644;55.858;37.390;2022-07-23T14:27:43;8.85;;;5.25;;
72601;SDS011;60644;55.858;37.390;2022-07-23T14:30:10;9.37;;;5.80;;
72601;SDS011;60644;55.858;37.390;2022-07-23T14:32:36;8.38;;;5.70;;
72601;SDS011;60644;55.858;37.390;2022-07-23T14:35:03;9.90;;;5.97;;
72601;SDS011;60644;55.858;37.390;2022-07-23T14:37:30;10.50;;;5.80;;
72601;SDS011;60644;55.858;37.390;2022-07-23T14:39:56;9.27;;;5.40;;
72601;SDS011;60644;55.858;37.390;2022-07-23T14:42:22;8.83;;;6.03;;
72601;SDS011;60644;55.858;37.390;2022-07-23T14:44:48;7.55;;;5.32;;
72601;SDS011;60644;55.858;37.390;2022-07-23T14:47:14;8.05;;;5.53;;
72601;SDS011;60644;55.858;37.390;2022-07-23T14:49:40;8.23;;;5.50;;
72601;SDS011;60644;55.858;37.390;2022-07-23T14:52:06;7.63;;;5.70;;
72601;SDS011;60644;55.858;37.390;2022-07-23T14:54:32;10.02;;;5.75;;
72601;SDS011;60644;55.858;37.390;2022-07-23T14:57:00;7.43;;;5.25;;
72601;SDS011;60644;55.858;37.390;2022-07-23T14:59:28;8.02;;;5.57;;
72601;SDS011;60644;55.858;37.390;2022-07-23T15:01:55;7.68;;;5.50;;
72601;SDS011;60644;55.858;37.390;2022-07-23T15:04:23;7.90;;;5.23;;
72601;SDS011;60644;55.858;37.390;2022-07-23T15:06:49;9.30;;;5.50;;
72601;SDS011;60644;55.858;37.390;2022-07-23T15:09:15;12.15;;;7.75;;
72601;SDS011;60644;55.858;37.390;2022-07-23T15:11:41;9.20;;;6.03;;
72601;SDS011;60644;55.858;37.390;2022-07-23T15:14:07;9.77;;;6.40;;
72601;SDS011;60644;55.858;37.390;2022-07-23T15:16:33;10.60;;;6.78;;
72601;SDS011;60644;55.858;37.390;2022-07-23T15:19:00;10.05;;;7.30;;
72601;SDS011;60644;55.858;37.390;2022-07-23T15:21:27;8.80;;;5.82;;
72601;SDS011;60644;55.858;37.390;2022-07-23T15:23:55;8.07;;;5.57;;
72601;SDS011;60644;55.858;37.390;2022-07-23T15:26:25;8.37;;;5.47;;
72601;SDS011;60644;55.858;37.390;2022-07-23T15:28:55;16.88;;;10.85;;
72601;SDS011;60644;55.858;37.390;2022-07-23T15:31:21;11.23;;;7.22;;